createdAt,value
2023-03-14T00:01:12.561Z,7.07
2023-03-14T00:03:39.301Z,6.68
2023-03-14T00:06:06.960Z,6.43
2023-03-14T00:08:33.640Z,6.50
2023-03-14T00:11:07.710Z,6.90
2023-03-14T00:13:34.194Z,6.18
2023-03-14T00:16:09.307Z,6.07
2023-03-14T00:18:36.380Z,6.72
2023-03-14T00:21:04.022Z,6.28
2023-03-14T00:23:32.322Z,5.80
2023-03-14T00:26:24.962Z,5.75
2023-03-14T00:28:55.068Z,5.68
2023-03-14T00:31:22.316Z,5.95
2023-03-14T00:33:49.083Z,5.53
2023-03-14T00:36:17.984Z,5.90
2023-03-14T00:38:48.474Z,4.57
2023-03-14T00:41:18.484Z,5.45
2023-03-14T00:43:45.534Z,5.00
2023-03-14T00:46:12.557Z,5.10
2023-03-14T00:48:39.916Z,5.32
2023-03-14T00:51:07.834Z,4.95
2023-03-14T00:53:39.824Z,5.25
2023-03-14T00:56:09.087Z,4.97
2023-03-14T00:58:35.726Z,5.07
2023-03-14T01:01:31.473Z,4.53
2023-03-14T01:03:58.040Z,4.72
2023-03-14T01:06:29.578Z,4.60
2023-03-14T01:08:57.644Z,4.68
2023-03-14T01:11:30.544Z,4.13
2023-03-14T01:13:57.649Z,4.22
2023-03-14T01:16:26.833Z,3.90
2023-03-14T01:18:53.409Z,3.25
2023-03-14T01:21:28.708Z,4.47
2023-03-14T01:23:57.876Z,4.13
2023-03-14T01:26:26.329Z,4.30
2023-03-14T01:28:56.349Z,4.13
2023-03-14T01:31:23.723Z,4.10
2023-03-14T01:33:50.384Z,3.78
2023-03-14T01:36:17.254Z,3.50
2023-03-14T01:38:44.097Z,3.67
2023-03-14T01:41:15.938Z,3.25
2023-03-14T01:43:42.495Z,4.35
2023-03-14T01:46:09.987Z,3.35
2023-03-14T01:48:51.608Z,3.65
2023-03-14T01:51:39.946Z,3.10
2023-03-14T01:54:12.756Z,3.15
2023-03-14T01:56:42.039Z,3.63
2023-03-14T01:59:11.636Z,3.33
2023-03-14T02:01:42.063Z,3.15
2023-03-14T02:04:09.698Z,3.10
2023-03-14T02:06:45.803Z,3.22
2023-03-14T02:09:12.302Z,3.50
2023-03-14T02:11:39.361Z,3.08
2023-03-14T02:14:06.654Z,2.60
2023-03-14T02:16:33.327Z,2.63
2023-03-14T02:19:00.058Z,3.30
2023-03-14T02:22:04.226Z,2.90
2023-03-14T02:24:58.271Z,3.17
2023-03-14T02:27:24.924Z,2.72
2023-03-14T02:29:56.499Z,2.33
2023-03-14T02:32:24.804Z,3.08
2023-03-14T02:34:56.076Z,2.28
2023-03-14T02:37:25.698Z,2.30
2023-03-14T02:39:52.408Z,2.40
2023-03-14T02:42:19.078Z,2.08
2023-03-14T02:45:13.841Z,2.38
2023-03-14T02:47:45.319Z,2.05
2023-03-14T02:50:18.185Z,2.30
2023-03-14T02:52:44.658Z,2.30
2023-03-14T02:55:11.235Z,1.92
2023-03-14T02:57:37.791Z,2.60
2023-03-14T03:00:06.085Z,2.53
2023-03-14T03:02:32.888Z,2.45
2023-03-14T03:04:59.410Z,2.15
2023-03-14T03:07:25.967Z,2.58
2023-03-14T03:09:52.439Z,2.00
2023-03-14T03:12:18.977Z,2.47
2023-03-14T03:14:45.496Z,1.80
2023-03-14T03:17:12.042Z,1.73
2023-03-14T03:19:39.367Z,2.75
2023-03-14T03:22:05.885Z,1.98
2023-03-14T03:24:32.363Z,2.30
2023-03-14T03:26:58.878Z,2.00
2023-03-14T03:29:25.529Z,2.22
2023-03-14T03:31:51.999Z,2.00
2023-03-14T03:34:18.576Z,2.35
2023-03-14T03:36:45.131Z,2.63
2023-03-14T03:39:11.606Z,1.90
2023-03-14T03:41:38.141Z,2.20
2023-03-14T03:44:04.915Z,2.33
2023-03-14T03:46:31.487Z,1.70
2023-03-14T03:49:01.053Z,1.85
2023-03-14T03:51:28.288Z,2.72
2023-03-14T03:53:54.840Z,1.95
2023-03-14T03:56:21.307Z,1.65
2023-03-14T03:58:47.837Z,1.60
2023-03-14T04:01:14.369Z,2.40
2023-03-14T04:03:41.555Z,1.63
2023-03-14T04:06:13.494Z,2.10
2023-03-14T04:08:41.749Z,1.90
2023-03-14T04:11:08.272Z,1.92
2023-03-14T04:13:34.779Z,2.00
2023-03-14T04:16:01.437Z,2.08
2023-03-14T04:18:28.612Z,2.03
2023-03-14T04:20:56.731Z,1.65
2023-03-14T04:23:27.493Z,1.73
2023-03-14T04:25:54.513Z,2.13
2023-03-14T04:28:21.045Z,1.70
2023-03-14T04:30:47.584Z,1.98
2023-03-14T04:33:18.032Z,1.67
2023-03-14T04:35:45.572Z,1.67
2023-03-14T04:38:12.652Z,1.30
2023-03-14T04:40:41.111Z,1.63
2023-03-14T04:43:08.713Z,1.45
2023-03-14T04:45:35.232Z,2.00
2023-03-14T04:48:01.820Z,1.90
2023-03-14T04:50:28.467Z,1.30
2023-03-14T04:52:54.955Z,1.63
2023-03-14T04:55:22.980Z,1.55
2023-03-14T04:57:50.888Z,1.60
2023-03-14T05:00:19.344Z,1.45
2023-03-14T05:02:46.461Z,1.75
2023-03-14T05:05:13.028Z,1.60
2023-03-14T05:07:39.638Z,1.90
2023-03-14T05:10:06.463Z,1.45
2023-03-14T05:12:32.997Z,1.80
2023-03-14T05:14:59.556Z,1.58
2023-03-14T05:17:26.074Z,1.80
2023-03-14T05:19:52.594Z,1.67
2023-03-14T05:22:19.405Z,1.42
2023-03-14T05:24:45.963Z,1.48
2023-03-14T05:27:12.456Z,1.58
2023-03-14T05:29:38.915Z,2.15
2023-03-14T05:32:05.465Z,1.50
2023-03-14T05:34:32.141Z,1.80
2023-03-14T05:36:58.810Z,1.60
2023-03-14T05:39:25.442Z,1.58
2023-03-14T05:41:52.020Z,1.77
2023-03-14T05:44:18.543Z,1.50
2023-03-14T05:46:45.106Z,1.80
2023-03-14T05:49:11.596Z,1.77
2023-03-14T05:51:38.092Z,1.52
2023-03-14T05:54:04.615Z,1.35
2023-03-14T05:56:31.110Z,1.50
2023-03-14T05:58:57.671Z,1.83
2023-03-14T06:01:24.143Z,1.83
2023-03-14T06:03:50.656Z,1.70
2023-03-14T06:06:17.801Z,2.33
2023-03-14T06:08:44.325Z,2.22
2023-03-14T06:11:10.878Z,2.70
2023-03-14T06:13:37.430Z,3.85
2023-03-14T06:16:04.158Z,3.55
2023-03-14T06:18:30.739Z,4.60
2023-03-14T06:20:57.713Z,5.18
2023-03-14T06:23:24.683Z,5.80
2023-03-14T06:25:52.087Z,5.60
2023-03-14T06:28:18.584Z,5.38
2023-03-14T06:30:45.158Z,6.07
2023-03-14T06:33:11.739Z,6.68
2023-03-14T06:35:38.296Z,6.50
2023-03-14T06:38:04.769Z,7.68
2023-03-14T06:40:31.286Z,7.10
2023-03-14T06:42:57.806Z,8.05
2023-03-14T06:45:24.481Z,6.95
2023-03-14T06:47:51.030Z,6.57
2023-03-14T06:50:17.625Z,6.97
2023-03-14T06:52:48.750Z,6.95
2023-03-14T06:55:17.143Z,6.85
2023-03-14T06:57:45.072Z,6.72
2023-03-14T07:00:13.424Z,7.22
2023-03-14T07:02:43.307Z,7.05
2023-03-14T07:05:11.326Z,6.25
2023-03-14T07:07:37.968Z,6.03
2023-03-14T07:10:04.984Z,6.32
2023-03-14T07:12:31.535Z,6.03
2023-03-14T07:15:03.284Z,6.43
2023-03-14T07:17:38.586Z,5.97
2023-03-14T07:20:07.465Z,5.68
2023-03-14T07:22:35.153Z,5.70
2023-03-14T07:25:01.802Z,5.75
2023-03-14T07:27:28.441Z,4.95
2023-03-14T07:29:54.988Z,5.25
2023-03-14T07:32:21.580Z,5.13
2023-03-14T07:34:48.138Z,4.75
2023-03-14T07:37:14.747Z,4.97
2023-03-14T07:39:41.277Z,5.40
2023-03-14T07:42:07.847Z,5.22
2023-03-14T07:44:34.447Z,5.22
2023-03-14T07:47:00.966Z,5.15
2023-03-14T07:49:28.152Z,5.53
2023-03-14T07:51:54.897Z,5.40
2023-03-14T07:54:21.460Z,5.10
2023-03-14T07:56:47.956Z,4.65
2023-03-14T07:59:14.468Z,5.40
2023-03-14T08:01:41.037Z,4.72
2023-03-14T08:04:07.658Z,4.60
2023-03-14T08:06:36.444Z,4.68
2023-03-14T08:09:03.696Z,4.18
2023-03-14T08:11:30.190Z,4.22
2023-03-14T08:13:56.692Z,3.83
2023-03-14T08:16:23.506Z,4.05
2023-03-14T08:18:50.165Z,3.70
2023-03-14T08:21:16.759Z,3.38
2023-03-14T08:23:43.255Z,3.78
2023-03-14T08:26:09.911Z,3.60
2023-03-14T08:28:36.594Z,3.42
2023-03-14T08:31:03.723Z,3.55
2023-03-14T08:33:30.840Z,3.13
2023-03-14T08:49:45.918Z,3.22
2023-03-14T08:52:12.499Z,3.40
2023-03-14T08:54:39.024Z,3.25
2023-03-14T08:57:06.375Z,2.75
2023-03-14T08:59:32.973Z,2.40
2023-03-14T09:01:59.485Z,2.92
2023-03-14T09:04:26.061Z,2.95
2023-03-14T09:06:52.755Z,2.75
2023-03-14T09:09:19.337Z,2.72
2023-03-14T09:11:45.850Z,2.60
2023-03-14T09:14:12.663Z,2.30
2023-03-14T09:16:39.341Z,2.45
2023-03-14T09:19:06.679Z,2.60
2023-03-14T09:21:33.230Z,2.60
2023-03-14T09:23:59.786Z,2.30
2023-03-14T09:26:26.343Z,2.05
2023-03-14T09:28:53.010Z,2.65
2023-03-14T09:31:19.642Z,2.40
2023-03-14T09:33:46.240Z,2.10
2023-03-14T09:36:12.812Z,2.03
2023-03-14T09:38:39.355Z,3.00
2023-03-14T09:41:18.602Z,1.80
2023-03-14T09:43:47.611Z,1.88
2023-03-14T09:46:15.232Z,2.33
2023-03-14T09:48:42.257Z,1.65
2023-03-14T09:51:15.802Z,1.90
2023-03-14T09:53:45.494Z,2.42
2023-03-14T09:56:32.540Z,2.22
2023-03-14T09:59:02.021Z,2.00
2023-03-14T10:01:32.739Z,2.15
2023-03-14T10:04:11.386Z,1.70
2023-03-14T10:06:38.063Z,2.20
2023-03-14T10:09:06.566Z,2.33
2023-03-14T10:11:33.401Z,2.15
2023-03-14T10:14:03.590Z,1.80
2023-03-14T10:16:35.402Z,1.90
2023-03-14T10:19:08.144Z,1.63
2023-03-14T10:21:50.494Z,1.80
2023-03-14T10:24:25.772Z,2.20
2023-03-14T10:26:59.365Z,2.15
2023-03-14T10:29:26.239Z,1.73
2023-03-14T10:32:08.780Z,1.80
2023-03-14T10:34:38.145Z,1.50
2023-03-14T10:37:22.579Z,1.80
2023-03-14T10:39:54.458Z,1.88
2023-03-14T10:42:26.315Z,1.98
2023-03-14T10:45:20.976Z,1.83
2023-03-14T10:47:50.604Z,1.90
2023-03-14T10:50:31.921Z,1.45
2023-03-14T10:53:06.324Z,1.50
2023-03-14T10:55:44.107Z,1.75
2023-03-14T10:58:24.889Z,2.03
2023-03-14T11:01:12.520Z,1.73
2023-03-14T11:03:43.691Z,1.75
2023-03-14T11:06:46.847Z,1.63
2023-03-14T11:09:24.529Z,1.60
2023-03-14T11:11:51.044Z,1.85
2023-03-14T11:14:42.003Z,1.52
2023-03-14T11:17:21.923Z,1.60
2023-03-14T11:19:57.074Z,2.03
2023-03-14T11:22:45.528Z,1.88
2023-03-14T11:25:36.930Z,1.67
2023-03-14T11:28:15.971Z,1.52
2023-03-14T11:30:47.364Z,1.38
2023-03-14T11:33:19.859Z,1.42
2023-03-14T11:36:10.270Z,1.33
2023-03-14T11:38:47.539Z,1.65
2023-03-14T11:41:32.866Z,1.90
2023-03-14T11:44:03.416Z,1.33
2023-03-14T11:46:36.725Z,2.20
2023-03-14T11:49:24.133Z,1.80
2023-03-14T11:51:56.673Z,1.60
2023-03-14T11:54:48.011Z,1.70
2023-03-14T11:57:22.108Z,1.63
2023-03-14T11:59:57.689Z,1.60
2023-03-14T12:03:01.947Z,1.92
2023-03-14T12:05:44.076Z,1.60
2023-03-14T12:08:10.594Z,1.58
2023-03-14T12:10:46.525Z,1.45
2023-03-14T12:13:15.742Z,1.80
2023-03-14T12:15:59.619Z,1.50
2023-03-14T12:21:00.850Z,1.58
2023-03-14T12:23:29.231Z,1.40
2023-03-14T12:26:17.493Z,1.35
2023-03-14T12:28:51.692Z,1.75
2023-03-14T12:31:30.564Z,1.50
2023-03-14T12:34:10.163Z,1.52
2023-03-14T12:36:49.569Z,1.58
2023-03-14T12:39:26.541Z,1.33
2023-03-14T12:42:02.039Z,1.80
2023-03-14T12:44:31.444Z,2.10
2023-03-14T12:46:59.364Z,1.85
2023-03-14T12:49:33.710Z,1.20
2023-03-14T12:52:03.840Z,2.15
2023-03-14T12:54:42.215Z,1.52
2023-03-14T12:57:27.528Z,1.65
2023-03-14T13:00:00.459Z,1.30
2023-03-14T13:02:30.763Z,1.60
2023-03-14T13:05:05.931Z,1.25
2023-03-14T13:07:47.124Z,1.80
2023-03-14T13:10:20.190Z,1.90
2023-03-14T13:13:02.206Z,1.65
2023-03-14T13:15:33.416Z,1.02
2023-03-14T13:18:37.050Z,1.48
2023-03-14T13:21:13.926Z,1.27
2023-03-14T13:23:40.814Z,1.30
2023-03-14T13:26:15.953Z,1.33
2023-03-14T13:28:42.717Z,1.73
2023-03-14T13:31:23.359Z,1.70
2023-03-14T13:34:00.616Z,1.70
2023-03-14T13:36:28.041Z,1.25
2023-03-14T13:39:02.589Z,1.35
2023-03-14T13:41:29.673Z,1.40
2023-03-14T13:44:07.985Z,1.20
2023-03-14T13:46:36.304Z,1.33
2023-03-14T13:49:05.781Z,1.42
2023-03-14T13:51:36.334Z,1.80
2023-03-14T13:54:06.202Z,1.40
2023-03-14T13:56:34.189Z,1.17
2023-03-14T13:59:00.779Z,1.60
2023-03-14T14:01:32.336Z,1.20
2023-03-14T14:04:06.576Z,1.30
2023-03-14T14:06:45.307Z,1.48
2023-03-14T14:09:17.998Z,1.35
2023-03-14T14:12:15.594Z,1.27
2023-03-14T14:15:01.110Z,1.33
2023-03-14T14:17:42.238Z,1.10
2023-03-14T14:20:18.815Z,1.15
2023-03-14T14:22:45.818Z,1.30
2023-03-14T14:25:16.257Z,1.23
2023-03-14T14:27:45.387Z,1.42
2023-03-14T14:30:17.853Z,1.02
2023-03-14T14:32:45.714Z,1.10
2023-03-14T14:35:23.208Z,1.40
2023-03-14T14:37:50.370Z,1.13
2023-03-14T14:40:25.940Z,2.10
2023-03-14T14:42:52.903Z,2.22
2023-03-14T14:45:25.458Z,1.73
2023-03-14T14:48:13.228Z,2.75
2023-03-14T14:50:51.647Z,1.65
2023-03-14T14:53:29.392Z,1.98
2023-03-14T14:55:59.439Z,3.17
2023-03-14T14:58:27.927Z,1.70
2023-03-14T15:01:00.490Z,1.30
2023-03-14T15:03:29.999Z,1.70
2023-03-14T15:05:57.247Z,1.77
2023-03-14T15:08:25.484Z,1.88
2023-03-14T15:10:52.102Z,1.20
2023-03-14T15:13:18.781Z,1.40
2023-03-14T15:15:47.266Z,1.45
2023-03-14T15:18:16.925Z,1.40
2023-03-14T15:20:44.940Z,1.38
2023-03-14T15:23:13.542Z,1.48
2023-03-14T15:25:54.485Z,1.30
2023-03-14T15:28:24.918Z,1.55
2023-03-14T15:30:53.697Z,1.55
2023-03-14T15:33:21.296Z,1.55
2023-03-14T15:35:49.026Z,1.40
2023-03-14T15:38:22.159Z,1.20
2023-03-14T15:40:48.901Z,1.40
2023-03-14T15:43:15.877Z,1.52
2023-03-14T15:45:42.602Z,1.10
2023-03-14T15:48:17.716Z,1.55
2023-03-14T15:50:46.844Z,1.40
2023-03-14T15:53:13.621Z,1.30
2023-03-14T15:55:40.161Z,1.42
2023-03-14T15:58:06.862Z,1.40
2023-03-14T16:00:33.479Z,1.63
2023-03-14T16:03:00.145Z,4.22
2023-03-14T16:05:26.688Z,11.35
2023-03-14T16:07:53.157Z,11.98
2023-03-14T16:10:19.693Z,11.68
2023-03-14T16:12:46.581Z,16.85
2023-03-14T16:15:13.176Z,21.08
2023-03-14T16:17:41.094Z,23.17
2023-03-14T16:20:08.784Z,23.73
2023-03-14T16:22:36.799Z,24.08
2023-03-14T16:25:05.935Z,22.10
2023-03-14T16:27:32.930Z,20.30
2023-03-14T16:30:02.802Z,21.33
2023-03-14T16:32:29.607Z,18.98
2023-03-14T16:34:56.446Z,20.60
2023-03-14T16:37:27.352Z,21.35
2023-03-14T16:40:11.709Z,20.38
2023-03-14T16:42:54.973Z,20.40
2023-03-14T16:45:26.039Z,22.13
2023-03-14T16:47:52.592Z,21.00
2023-03-14T16:50:19.096Z,21.55
2023-03-14T16:52:47.938Z,20.45
2023-03-14T16:55:14.469Z,20.27
2023-03-14T16:57:41.019Z,20.45
2023-03-14T17:00:11.921Z,20.85
2023-03-14T17:02:39.029Z,21.00
2023-03-14T17:05:08.500Z,20.15
2023-03-14T17:07:38.441Z,22.42
2023-03-14T17:10:05.351Z,23.35
2023-03-14T17:12:31.848Z,29.60
2023-03-14T17:15:00.165Z,35.65
2023-03-14T17:17:26.721Z,40.13
2023-03-14T17:19:53.259Z,41.13
2023-03-14T17:22:25.916Z,43.45
2023-03-14T17:24:54.741Z,44.58
2023-03-14T17:27:21.363Z,45.28
2023-03-14T17:29:48.837Z,47.00
2023-03-14T17:32:17.518Z,46.67
2023-03-14T17:34:44.160Z,46.60
2023-03-14T17:37:10.748Z,47.22
2023-03-14T17:39:38.243Z,45.53
2023-03-14T17:42:05.568Z,46.38
2023-03-14T17:44:32.705Z,44.25
2023-03-14T17:47:00.238Z,46.03
2023-03-14T17:49:27.078Z,43.75
2023-03-14T17:51:53.844Z,45.13
2023-03-14T17:54:20.625Z,44.17
2023-03-14T17:56:48.929Z,44.58
2023-03-14T17:59:16.134Z,43.78
2023-03-14T18:01:42.850Z,41.95
2023-03-14T18:04:09.663Z,40.40
2023-03-14T18:06:36.358Z,41.22
2023-03-14T18:09:05.706Z,40.40
2023-03-14T18:11:32.658Z,39.80
2023-03-14T18:14:01.625Z,41.33
2023-03-14T18:16:28.457Z,36.58
2023-03-14T18:18:56.887Z,38.72
2023-03-14T18:21:23.806Z,38.22
2023-03-14T18:23:50.433Z,35.92
2023-03-14T18:26:18.128Z,35.15
2023-03-14T18:28:45.518Z,34.58
2023-03-14T18:31:13.854Z,33.28
2023-03-14T18:33:45.421Z,32.13
2023-03-14T18:36:13.147Z,32.78
2023-03-14T18:38:42.937Z,31.70
2023-03-14T18:41:11.879Z,30.17
2023-03-14T18:43:38.992Z,29.83
2023-03-14T18:46:05.646Z,28.85
2023-03-14T18:48:32.413Z,29.13
2023-03-14T18:50:59.478Z,27.55
2023-03-14T18:53:32.050Z,26.20
2023-03-14T18:56:00.447Z,26.38
2023-03-14T18:58:30.666Z,25.77
2023-03-14T19:00:59.346Z,25.80
2023-03-14T19:03:26.327Z,26.38
2023-03-14T19:05:54.846Z,24.65
2023-03-14T19:08:23.665Z,23.70
2023-03-14T19:10:55.861Z,23.92
2023-03-14T19:13:23.095Z,20.95
2023-03-14T19:15:51.467Z,21.23
2023-03-14T19:18:18.127Z,20.45
2023-03-14T19:20:55.114Z,20.38
2023-03-14T19:23:24.568Z,22.05
2023-03-14T19:25:52.533Z,19.95
2023-03-14T19:28:19.047Z,19.95
2023-03-14T19:30:45.570Z,20.13
2023-03-14T19:33:12.480Z,19.90
2023-03-14T19:35:39.042Z,20.67
2023-03-14T19:38:05.589Z,19.92
2023-03-14T19:40:32.355Z,19.33
2023-03-14T19:42:59.235Z,19.65
2023-03-14T19:45:30.736Z,18.55
2023-03-14T19:47:57.436Z,18.67
2023-03-14T19:50:25.372Z,18.83
2023-03-14T19:52:52.307Z,18.08
2023-03-14T19:55:19.160Z,18.48
2023-03-14T19:57:45.722Z,16.95
2023-03-14T20:00:19.201Z,16.73
2023-03-14T20:02:53.168Z,17.25
2023-03-14T20:05:21.855Z,17.13
2023-03-14T20:07:49.639Z,16.08
2023-03-14T20:10:18.562Z,16.23
2023-03-14T20:12:45.705Z,16.35
2023-03-14T20:15:18.332Z,14.82
2023-03-14T20:17:49.101Z,15.45
2023-03-14T20:20:16.243Z,15.20
2023-03-14T20:22:43.037Z,15.63
2023-03-14T20:25:12.922Z,15.05
2023-03-14T20:27:40.282Z,14.43
2023-03-14T20:30:11.000Z,14.70
2023-03-14T20:32:37.707Z,14.32
2023-03-14T20:35:04.529Z,13.27
2023-03-14T20:37:32.648Z,13.82
2023-03-14T20:39:59.149Z,13.65
2023-03-14T20:42:27.107Z,12.93
2023-03-14T20:44:54.435Z,12.95
2023-03-14T20:47:21.559Z,13.40
2023-03-14T20:49:48.084Z,10.80
2023-03-14T20:52:15.493Z,12.52
2023-03-14T20:54:42.176Z,13.48
2023-03-14T20:57:08.875Z,11.43
2023-03-14T20:59:35.405Z,11.32
2023-03-14T21:02:01.931Z,10.70
2023-03-14T21:04:28.535Z,11.30
2023-03-14T21:06:55.453Z,11.80
2023-03-14T21:09:23.051Z,11.02
2023-03-14T21:11:49.567Z,10.95
2023-03-14T21:14:18.644Z,11.40
2023-03-14T21:16:46.434Z,12.02
2023-03-14T21:19:13.587Z,11.95
2023-03-14T21:21:41.008Z,12.57
2023-03-14T21:24:08.423Z,14.10
2023-03-14T21:26:35.175Z,13.45
2023-03-14T21:29:07.581Z,13.80
2023-03-14T21:31:34.265Z,13.75
2023-03-14T21:34:00.828Z,13.95
2023-03-14T21:36:27.375Z,13.15
2023-03-14T21:38:53.919Z,14.25
2023-03-14T21:41:21.857Z,13.48
2023-03-14T21:43:48.357Z,13.98
2023-03-14T21:46:14.924Z,13.73
2023-03-14T21:48:41.465Z,13.57
2023-03-14T21:51:08.003Z,12.63
2023-03-14T21:53:35.152Z,13.75
2023-03-14T21:56:02.772Z,14.63
2023-03-14T21:58:29.285Z,13.38
2023-03-14T22:01:05.135Z,13.48
2023-03-14T22:03:34.332Z,14.25
2023-03-14T22:06:01.895Z,13.43
2023-03-14T22:08:29.026Z,14.30
2023-03-14T22:10:55.967Z,13.50
2023-03-14T22:13:25.618Z,13.32
2023-03-14T22:15:52.201Z,13.85
2023-03-14T22:18:19.373Z,13.30
2023-03-14T22:20:46.491Z,14.45
2023-03-14T22:23:13.567Z,12.77
2023-03-14T22:25:46.277Z,13.48
2023-03-14T22:28:12.798Z,12.93
2023-03-14T22:30:39.355Z,11.98
2023-03-14T22:33:06.297Z,12.35
2023-03-14T22:35:33.485Z,12.38
2023-03-14T22:38:00.069Z,13.02
2023-03-14T22:40:26.719Z,11.80
2023-03-14T22:42:53.936Z,12.02
2023-03-14T22:45:20.836Z,11.65
2023-03-14T22:47:47.426Z,12.57
2023-03-14T22:50:14.106Z,11.43
2023-03-14T22:52:40.637Z,11.68
2023-03-14T22:55:07.506Z,10.50
2023-03-14T22:57:34.184Z,11.55
2023-03-14T23:00:00.677Z,11.63
2023-03-14T23:02:27.268Z,10.00
2023-03-14T23:04:53.817Z,9.88
2023-03-14T23:07:20.367Z,10.02
2023-03-14T23:09:46.892Z,10.18
2023-03-14T23:12:17.566Z,9.35
2023-03-14T23:14:44.188Z,8.95
2023-03-14T23:17:10.802Z,9.05
2023-03-14T23:19:38.888Z,9.50
2023-03-14T23:22:09.516Z,8.75
2023-03-14T23:24:36.339Z,8.50
2023-03-14T23:27:03.404Z,8.20
2023-03-14T23:29:29.926Z,8.27
2023-03-14T23:31:56.473Z,8.65
2023-03-14T23:34:25.253Z,8.82
2023-03-14T23:36:51.799Z,7.72
2023-03-14T23:39:18.331Z,6.95
2023-03-14T23:41:44.884Z,7.78
2023-03-14T23:44:13.305Z,7.20
2023-03-14T23:46:40.247Z,7.22
2023-03-14T23:49:06.765Z,6.95
2023-03-14T23:51:33.298Z,7.25
2023-03-14T23:53:59.791Z,7.85
2023-03-14T23:56:26.283Z,7.00
2023-03-14T23:58:53.903Z,7.25
